sensor_id;sensor_type;location;lat;lon;timestamp;pressure;altitude;pressure_sealevel;temperature;humidity
35553;BME280;21656;46.054;13.614;2022-10-26T05:22:04;101133.91;;;13.67;100.00
35553;BME280;21656;46.054;13.614;2022-10-26T05:24:29;101142.91;;;13.56;100.00
35553;BME280;21656;46.054;13.614;2022-10-26T05:26:55;101146.34;;;13.58;100.00
35553;BME280;21656;46.054;13.614;2022-10-26T05:29:20;101153.94;;;13.64;100.00
35553;BME280;21656;46.054;13.614;2022-10-26T05:31:46;101144.25;;;13.73;100.00
35553;BME280;21656;46.054;13.614;2022-10-26T05:34:11;101142.75;;;13.80;100.00
35553;BME280;21656;46.054;13.614;2022-10-26T05:36:36;101144.94;;;13.86;100.00
35553;BME280;21656;46.054;13.614;2022-10-26T05:39:02;101135.84;;;13.87;100.00
35553;BME280;21656;46.054;13.614;2022-10-26T05:41:27;101141.84;;;13.91;100.00
35553;BME280;21656;46.054;13.614;2022-10-26T05:43:53;101152.56;;;13.93;100.00
35553;BME280;21656;46.054;13.614;2022-10-26T05:46:18;101155.75;;;13.98;100.00
35553;BME280;21656;46.054;13.614;2022-10-26T05:48:43;101155.59;;;13.99;100.00
35553;BME280;21656;46.054;13.614;2022-10-26T05:51:09;101171.03;;;13.87;100.00
35553;BME280;21656;46.054;13.614;2022-10-26T05:53:37;101162.28;;;13.95;100.00
35553;BME280;21656;46.054;13.614;2022-10-26T05:56:02;101167.53;;;13.97;100.00
35553;BME280;21656;46.054;13.614;2022-10-26T05:58:37;101155.97;;;14.06;100.00
35553;BME280;21656;46.054;13.614;2022-10-26T06:01:15;101155.81;;;14.07;100.00
35553;BME280;21656;46.054;13.614;2022-10-26T06:06:45;101153.63;;;14.01;100.00
35553;BME280;21656;46.054;13.614;2022-10-26T06:09:12;101168.28;;;13.99;100.00
35553;BME280;21656;46.054;13.614;2022-10-26T06:11:39;101170.34;;;14.06;100.00
35553;BME280;21656;46.054;13.614;2022-10-26T06:14:05;101175.41;;;14.00;100.00
35553;BME280;21656;46.054;13.614;2022-10-26T06:21:57;101186.25;;;14.00;100.00
35553;BME280;21656;46.054;13.614;2022-10-26T06:27:51;101182.41;;;14.02;100.00
35553;BME280;21656;46.054;13.614;2022-10-26T06:30:21;101186.88;;;14.03;100.00
35553;BME280;21656;46.054;13.614;2022-10-26T06:32:48;101192.03;;;14.06;100.00
35553;BME280;21656;46.054;13.614;2022-10-26T06:38:04;101197.06;;;14.11;100.00
35553;BME280;21656;46.054;13.614;2022-10-26T06:40:32;101193.97;;;14.16;100.00
35553;BME280;21656;46.054;13.614;2022-10-26T06:42:59;101199.97;;;14.19;100.00
35553;BME280;21656;46.054;13.614;2022-10-26T06:45:25;101199.13;;;14.19;100.00
35553;BME280;21656;46.054;13.614;2022-10-26T06:47:56;101196.41;;;14.19;100.00
35553;BME280;21656;46.054;13.614;2022-10-26T06:50:26;101199.88;;;14.21;100.00
35553;BME280;21656;46.054;13.614;2022-10-26T06:53:09;101200.44;;;14.24;100.00
35553;BME280;21656;46.054;13.614;2022-10-26T06:55:42;101202.50;;;14.32;100.00
35553;BME280;21656;46.054;13.614;2022-10-26T06:58:15;101203.84;;;14.38;100.00
35553;BME280;21656;46.054;13.614;2022-10-26T07:00:41;101208.16;;;14.40;100.00
35553;BME280;21656;46.054;13.614;2022-10-26T07:03:08;101198.78;;;14.44;100.00
35553;BME280;21656;46.054;13.614;2022-10-26T07:05:33;101203.06;;;14.47;100.00
35553;BME280;21656;46.054;13.614;2022-10-26T07:07:58;101210.63;;;14.43;100.00
35553;BME280;21656;46.054;13.614;2022-10-26T07:10:24;101211.00;;;14.39;100.00
35553;BME280;21656;46.054;13.614;2022-10-26T07:12:49;101209.16;;;14.39;100.00
35553;BME280;21656;46.054;13.614;2022-10-26T07:15:15;101219.25;;;14.37;100.00
35553;BME280;21656;46.054;13.614;2022-10-26T07:17:47;101219.25;;;14.37;100.00
35553;BME280;21656;46.054;13.614;2022-10-26T07:20:17;101224.56;;;14.39;100.00
35553;BME280;21656;46.054;13.614;2022-10-26T07:22:43;101225.53;;;14.38;100.00
35553;BME280;21656;46.054;13.614;2022-10-26T07:25:09;101229.81;;;14.40;100.00
35553;BME280;21656;46.054;13.614;2022-10-26T07:27:36;101237.44;;;14.46;100.00
35553;BME280;21656;46.054;13.614;2022-10-26T07:30:02;101237.19;;;14.49;100.00
35553;BME280;21656;46.054;13.614;2022-10-26T07:32:28;101242.25;;;14.54;100.00
35553;BME280;21656;46.054;13.614;2022-10-26T07:34:54;101242.72;;;14.59;100.00
35553;BME280;21656;46.054;13.614;2022-10-26T07:37:20;101238.75;;;14.63;100.00
35553;BME280;21656;46.054;13.614;2022-10-26T07:39:45;101243.19;;;14.64;100.00
35553;BME280;21656;46.054;13.614;2022-10-26T07:42:10;101245.66;;;14.67;100.00
35553;BME280;21656;46.054;13.614;2022-10-26T07:44:38;101239.84;;;14.72;100.00
35553;BME280;21656;46.054;13.614;2022-10-26T07:47:03;101233.13;;;14.76;100.00
35553;BME280;21656;46.054;13.614;2022-10-26T07:49:29;101234.50;;;14.82;100.00
35553;BME280;21656;46.054;13.614;2022-10-26T07:51:54;101232.63;;;14.82;100.00
35553;BME280;21656;46.054;13.614;2022-10-26T07:54:19;101231.44;;;14.75;100.00
35553;BME280;21656;46.054;13.614;2022-10-26T07:56:48;101233.88;;;14.78;100.00
35553;BME280;21656;46.054;13.614;2022-10-26T07:59:14;101234.22;;;14.85;100.00
35553;BME280;21656;46.054;13.614;2022-10-26T08:01:39;101235.53;;;14.90;100.00
35553;BME280;21656;46.054;13.614;2022-10-26T08:04:04;101237.50;;;14.88;100.00
35553;BME280;21656;46.054;13.614;2022-10-26T08:06:30;101234.16;;;14.96;100.00
35553;BME280;21656;46.054;13.614;2022-10-26T08:08:55;101216.91;;;14.97;100.00
35553;BME280;21656;46.054;13.614;2022-10-26T08:11:21;101208.94;;;15.05;100.00
35553;BME280;21656;46.054;13.614;2022-10-26T08:13:46;101215.56;;;15.12;100.00
35553;BME280;21656;46.054;13.614;2022-10-26T08:16:11;101221.84;;;15.13;100.00
35553;BME280;21656;46.054;13.614;2022-10-26T08:18:37;101217.00;;;15.16;100.00
35553;BME280;21656;46.054;13.614;2022-10-26T08:21:05;101221.06;;;15.22;100.00
35553;BME280;21656;46.054;13.614;2022-10-26T08:23:31;101212.31;;;15.18;100.00
35553;BME280;21656;46.054;13.614;2022-10-26T08:26:01;101217.59;;;15.20;100.00
35553;BME280;21656;46.054;13.614;2022-10-26T08:28:27;101214.91;;;15.20;100.00
35553;BME280;21656;46.054;13.614;2022-10-26T08:30:53;101213.94;;;15.31;100.00
35553;BME280;21656;46.054;13.614;2022-10-26T08:33:19;101216.53;;;15.32;100.00
35553;BME280;21656;46.054;13.614;2022-10-26T08:35:44;101222.94;;;15.31;100.00
35553;BME280;21656;46.054;13.614;2022-10-26T08:38:10;101212.81;;;15.33;100.00
35553;BME280;21656;46.054;13.614;2022-10-26T08:40:37;101221.13;;;15.42;100.00
35553;BME280;21656;46.054;13.614;2022-10-26T08:46:08;101221.13;;;15.42;100.00
35553;BME280;21656;46.054;13.614;2022-10-26T08:48:37;101233.16;;;15.49;100.00
35553;BME280;21656;46.054;13.614;2022-10-26T08:51:09;101232.19;;;15.59;100.00
35553;BME280;21656;46.054;13.614;2022-10-26T08:53:50;101227.66;;;15.60;100.00
35553;BME280;21656;46.054;13.614;2022-10-26T08:56:24;101228.06;;;15.55;100.00
35553;BME280;21656;46.054;13.614;2022-10-26T08:59:17;101225.34;;;15.55;100.00
35553;BME280;21656;46.054;13.614;2022-10-26T09:01:39;101225.34;;;15.55;100.00
35553;BME280;21656;46.054;13.614;2022-10-26T09:04:08;101222.34;;;15.58;100.00
35553;BME280;21656;46.054;13.614;2022-10-26T09:09:12;101222.19;;;15.81;100.00
35553;BME280;21656;46.054;13.614;2022-10-26T09:14:38;101217.19;;;15.86;100.00
35553;BME280;21656;46.054;13.614;2022-10-26T09:22:11;101222.50;;;15.97;100.00
35553;BME280;21656;46.054;13.614;2022-10-26T09:24:49;101226.69;;;16.11;100.00
35553;BME280;21656;46.054;13.614;2022-10-26T09:30:48;101220.84;;;16.35;100.00
35553;BME280;21656;46.054;13.614;2022-10-26T09:33:16;101225.28;;;16.36;100.00
35553;BME280;21656;46.054;13.614;2022-10-26T09:43:59;101226.00;;;16.58;100.00
35553;BME280;21656;46.054;13.614;2022-10-26T09:46:33;101225.28;;;16.65;100.00
35553;BME280;21656;46.054;13.614;2022-10-26T09:49:05;101218.59;;;16.79;100.00
35553;BME280;21656;46.054;13.614;2022-10-26T09:51:37;101216.00;;;16.87;100.00
35553;BME280;21656;46.054;13.614;2022-10-26T09:54:15;101211.38;;;17.07;100.00
35553;BME280;21656;46.054;13.614;2022-10-26T09:56:43;101221.69;;;17.14;100.00
35553;BME280;21656;46.054;13.614;2022-10-26T09:59:12;101219.81;;;17.14;100.00
35553;BME280;21656;46.054;13.614;2022-10-26T10:01:38;101228.00;;;17.04;100.00
35553;BME280;21656;46.054;13.614;2022-10-26T10:06:43;101220.00;;;17.03;100.00
35553;BME280;21656;46.054;13.614;2022-10-26T10:09:20;101219.97;;;17.13;100.00
35553;BME280;21656;46.054;13.614;2022-10-26T10:11:58;101219.75;;;17.33;100.00
35553;BME280;21656;46.054;13.614;2022-10-26T10:14:36;101218.72;;;17.44;100.00
35553;BME280;21656;46.054;13.614;2022-10-26T10:17:05;101221.50;;;17.62;100.00
35553;BME280;21656;46.054;13.614;2022-10-26T10:19:34;101214.84;;;17.74;100.00
35553;BME280;21656;46.054;13.614;2022-10-26T10:24:34;101203.84;;;18.04;100.00
35553;BME280;21656;46.054;13.614;2022-10-26T10:29:48;101207.81;;;18.27;100.00
35553;BME280;21656;46.054;13.614;2022-10-26T10:32:17;101206.50;;;18.31;100.00
35553;BME280;21656;46.054;13.614;2022-10-26T10:34:45;101201.53;;;18.45;100.00
35553;BME280;21656;46.054;13.614;2022-10-26T10:40:00;101215.53;;;18.50;100.00
35553;BME280;21656;46.054;13.614;2022-10-26T10:42:30;101210.47;;;18.55;100.00
35553;BME280;21656;46.054;13.614;2022-10-26T10:44:57;101200.81;;;18.60;100.00
35553;BME280;21656;46.054;13.614;2022-10-26T10:47:33;101197.16;;;18.70;100.00
35553;BME280;21656;46.054;13.614;2022-10-26T10:50:21;101190.78;;;18.79;100.00
35553;BME280;21656;46.054;13.614;2022-10-26T10:52:46;101189.47;;;18.91;100.00
35553;BME280;21656;46.054;13.614;2022-10-26T10:58:38;101184.78;;;19.01;100.00
35553;BME280;21656;46.054;13.614;2022-10-26T11:01:13;101186.84;;;18.99;100.00
35553;BME280;21656;46.054;13.614;2022-10-26T11:06:20;101182.28;;;19.08;100.00
35553;BME280;21656;46.054;13.614;2022-10-26T11:09:08;101182.94;;;19.02;100.00
35553;BME280;21656;46.054;13.614;2022-10-26T11:11:39;101184.16;;;19.08;100.00
35553;BME280;21656;46.054;13.614;2022-10-26T11:14:26;101174.88;;;19.26;100.00
35553;BME280;21656;46.054;13.614;2022-10-26T11:17:22;101170.88;;;19.47;100.00
35553;BME280;21656;46.054;13.614;2022-10-26T11:20:11;101164.97;;;19.60;100.00
35553;BME280;21656;46.054;13.614;2022-10-26T11:22:42;101156.16;;;19.74;100.00
35553;BME280;21656;46.054;13.614;2022-10-26T11:25:17;101160.81;;;19.90;100.00
35553;BME280;21656;46.054;13.614;2022-10-26T11:27:51;101149.03;;;19.98;100.00
35553;BME280;21656;46.054;13.614;2022-10-26T11:30:20;101161.91;;;20.05;100.00
35553;BME280;21656;46.054;13.614;2022-10-26T11:32:53;101162.06;;;20.04;100.00
35553;BME280;21656;46.054;13.614;2022-10-26T11:35:31;101161.22;;;20.03;100.00
35553;BME280;21656;46.054;13.614;2022-10-26T11:41:00;101159.28;;;19.87;100.00
35553;BME280;21656;46.054;13.614;2022-10-26T11:43:37;101163.38;;;19.83;100.00
35553;BME280;21656;46.054;13.614;2022-10-26T11:46:20;101165.78;;;19.86;100.00
35553;BME280;21656;46.054;13.614;2022-10-26T11:51:51;101167.28;;;20.64;100.00
35553;BME280;21656;46.054;13.614;2022-10-26T11:54:39;101156.63;;;20.94;100.00
35553;BME280;21656;46.054;13.614;2022-10-26T11:57:09;101156.59;;;21.10;100.00
35553;BME280;21656;46.054;13.614;2022-10-26T11:59:42;101162.34;;;21.32;100.00
35553;BME280;21656;46.054;13.614;2022-10-26T12:02:17;101165.38;;;21.61;98.86
35553;BME280;21656;46.054;13.614;2022-10-26T12:04:48;101167.25;;;21.61;93.99
35553;BME280;21656;46.054;13.614;2022-10-26T12:07:22;101166.41;;;21.60;93.23
35553;BME280;21656;46.054;13.614;2022-10-26T12:09:49;101174.22;;;21.72;91.78
35553;BME280;21656;46.054;13.614;2022-10-26T12:17:38;101177.31;;;22.08;89.08
35553;BME280;21656;46.054;13.614;2022-10-26T12:22:59;101178.94;;;22.17;83.07
35553;BME280;21656;46.054;13.614;2022-10-26T12:25:25;101170.13;;;22.30;88.26
35553;BME280;21656;46.054;13.614;2022-10-26T12:27:55;101160.09;;;21.91;88.93
35553;BME280;21656;46.054;13.614;2022-10-26T12:30:31;101160.59;;;21.55;90.57
35553;BME280;21656;46.054;13.614;2022-10-26T12:37:59;101156.09;;;21.71;91.45
35553;BME280;21656;46.054;13.614;2022-10-26T12:42:57;101152.25;;;22.11;88.14
35553;BME280;21656;46.054;13.614;2022-10-26T12:45:44;101152.06;;;22.21;87.32
35553;BME280;21656;46.054;13.614;2022-10-26T12:48:49;101155.50;;;22.38;88.74
35553;BME280;21656;46.054;13.614;2022-10-26T12:56:36;101154.91;;;22.27;86.38
35553;BME280;21656;46.054;13.614;2022-10-26T13:02:17;101147.88;;;22.25;88.78
35553;BME280;21656;46.054;13.614;2022-10-26T13:07:23;101151.31;;;22.27;87.03
35553;BME280;21656;46.054;13.614;2022-10-26T13:10:02;101150.25;;;22.28;91.73
35553;BME280;21656;46.054;13.614;2022-10-26T13:12:38;101147.97;;;22.08;88.49
35553;BME280;21656;46.054;13.614;2022-10-26T13:15:20;101151.41;;;22.11;89.68
35553;BME280;21656;46.054;13.614;2022-10-26T13:18:00;101151.56;;;22.09;86.10
35553;BME280;21656;46.054;13.614;2022-10-26T13:20:28;101156.16;;;22.17;85.90
35553;BME280;21656;46.054;13.614;2022-10-26T13:22:54;101153.91;;;22.20;86.19
35553;BME280;21656;46.054;13.614;2022-10-26T13:25:28;101159.22;;;22.22;87.27
35553;BME280;21656;46.054;13.614;2022-10-26T13:30:58;101150.66;;;21.94;85.23
35553;BME280;21656;46.054;13.614;2022-10-26T13:33:30;101145.53;;;21.91;91.10
35553;BME280;21656;46.054;13.614;2022-10-26T13:36:01;101142.91;;;21.97;91.63
35553;BME280;21656;46.054;13.614;2022-10-26T13:38:31;101139.38;;;21.89;85.09
35553;BME280;21656;46.054;13.614;2022-10-26T13:41:04;101147.13;;;21.77;84.06
35553;BME280;21656;46.054;13.614;2022-10-26T13:43:31;101143.69;;;21.83;87.43
35553;BME280;21656;46.054;13.614;2022-10-26T13:46:01;101142.38;;;21.71;86.30
35553;BME280;21656;46.054;13.614;2022-10-26T13:48:36;101150.97;;;21.68;85.57
35553;BME280;21656;46.054;13.614;2022-10-26T13:51:11;101151.88;;;21.60;84.00
35553;BME280;21656;46.054;13.614;2022-10-26T13:53:42;101147.75;;;21.56;85.22
35553;BME280;21656;46.054;13.614;2022-10-26T13:58:49;101144.91;;;21.72;86.86
35553;BME280;21656;46.054;13.614;2022-10-26T14:01:20;101144.91;;;21.80;87.36
35553;BME280;21656;46.054;13.614;2022-10-26T14:03:47;101142.69;;;21.76;87.48
35553;BME280;21656;46.054;13.614;2022-10-26T14:08:47;101147.97;;;21.46;88.24
35553;BME280;21656;46.054;13.614;2022-10-26T14:11:17;101148.34;;;21.35;88.54
35553;BME280;21656;46.054;13.614;2022-10-26T14:13:45;101139.75;;;21.38;89.86
35553;BME280;21656;46.054;13.614;2022-10-26T14:16:14;101144.38;;;21.37;90.74
35553;BME280;21656;46.054;13.614;2022-10-26T14:18:40;101147.28;;;21.36;90.17
35553;BME280;21656;46.054;13.614;2022-10-26T14:21:12;101148.50;;;21.33;91.74
35553;BME280;21656;46.054;13.614;2022-10-26T14:23:52;101148.34;;;21.35;93.18
35553;BME280;21656;46.054;13.614;2022-10-26T14:26:22;101153.13;;;21.41;93.40
35553;BME280;21656;46.054;13.614;2022-10-26T14:28:51;101142.84;;;21.43;94.38
35553;BME280;21656;46.054;13.614;2022-10-26T14:31:28;101140.75;;;21.37;91.77
35553;BME280;21656;46.054;13.614;2022-10-26T14:33:55;101151.75;;;21.29;92.59
35553;BME280;21656;46.054;13.614;2022-10-26T14:36:33;101151.75;;;21.29;94.77
35553;BME280;21656;46.054;13.614;2022-10-26T14:39:21;101151.78;;;21.20;94.34
35553;BME280;21656;46.054;13.614;2022-10-26T14:41:52;101152.16;;;21.17;94.30
35553;BME280;21656;46.054;13.614;2022-10-26T14:44:21;101155.56;;;21.11;93.39
35553;BME280;21656;46.054;13.614;2022-10-26T14:46:48;101165.19;;;20.99;91.97
35553;BME280;21656;46.054;13.614;2022-10-26T14:49:19;101160.56;;;20.91;93.17
35553;BME280;21656;46.054;13.614;2022-10-26T14:51:45;101157.16;;;20.89;93.73
35553;BME280;21656;46.054;13.614;2022-10-26T14:54:19;101155.97;;;20.84;95.90
35553;BME280;21656;46.054;13.614;2022-10-26T14:56:45;101159.25;;;20.79;96.08
35553;BME280;21656;46.054;13.614;2022-10-26T14:59:21;101160.59;;;20.75;96.28
35553;BME280;21656;46.054;13.614;2022-10-26T15:02:11;101168.31;;;20.71;97.38
35553;BME280;21656;46.054;13.614;2022-10-26T15:04:41;101166.94;;;20.67;99.62
35553;BME280;21656;46.054;13.614;2022-10-26T15:12:04;101177.47;;;20.38;100.00
35553;BME280;21656;46.054;13.614;2022-10-26T15:14:30;101184.66;;;20.30;100.00
35553;BME280;21656;46.054;13.614;2022-10-26T15:16:57;101187.72;;;20.19;100.00
35553;BME280;21656;46.054;13.614;2022-10-26T15:19:23;101196.56;;;20.05;100.00
35553;BME280;21656;46.054;13.614;2022-10-26T15:21:51;101191.75;;;19.90;100.00
35553;BME280;21656;46.054;13.614;2022-10-26T15:26:45;101199.38;;;19.70;100.00
35553;BME280;21656;46.054;13.614;2022-10-26T15:29:43;101190.06;;;19.55;100.00
35553;BME280;21656;46.054;13.614;2022-10-26T15:32:30;101197.00;;;19.49;100.00
35553;BME280;21656;46.054;13.614;2022-10-26T15:37:46;101210.06;;;19.30;100.00
35553;BME280;21656;46.054;13.614;2022-10-26T15:40:11;101217.81;;;19.16;100.00
35553;BME280;21656;46.054;13.614;2022-10-26T15:42:39;101221.88;;;19.12;100.00
35553;BME280;21656;46.054;13.614;2022-10-26T15:45:15;101223.22;;;19.08;100.00
35553;BME280;21656;46.054;13.614;2022-10-26T15:47:41;101224.53;;;19.04;100.00
35553;BME280;21656;46.054;13.614;2022-10-26T15:50:15;101230.97;;;18.95;100.00
35553;BME280;21656;46.054;13.614;2022-10-26T15:52:41;101234.63;;;18.86;100.00
35553;BME280;21656;46.054;13.614;2022-10-26T15:55:07;101239.63;;;18.72;100.00
35553;BME280;21656;46.054;13.614;2022-10-26T15:57:33;101237.53;;;18.66;100.00
35553;BME280;21656;46.054;13.614;2022-10-26T15:59:58;101242.03;;;18.57;100.00
35553;BME280;21656;46.054;13.614;2022-10-26T16:02:24;101237.34;;;18.50;100.00
35553;BME280;21656;46.054;13.614;2022-10-26T16:04:49;101242.03;;;18.39;100.00
35553;BME280;21656;46.054;13.614;2022-10-26T16:07:15;101247.81;;;18.36;100.00
35553;BME280;21656;46.054;13.614;2022-10-26T16:09:41;101248.78;;;18.35;100.00
35553;BME280;21656;46.054;13.614;2022-10-26T16:12:09;101250.84;;;18.33;100.00
35553;BME280;21656;46.054;13.614;2022-10-26T16:14:36;101258.91;;;18.25;100.00
35553;BME280;21656;46.054;13.614;2022-10-26T16:17:01;101269.59;;;18.18;100.00
35553;BME280;21656;46.054;13.614;2022-10-26T16:19:26;101275.94;;;18.09;100.00
35553;BME280;21656;46.054;13.614;2022-10-26T16:21:52;101267.06;;;18.07;100.00
35553;BME280;21656;46.054;13.614;2022-10-26T16:24:17;101269.94;;;18.06;100.00
35553;BME280;21656;46.054;13.614;2022-10-26T16:26:43;101271.78;;;18.05;100.00
35553;BME280;21656;46.054;13.614;2022-10-26T16:29:08;101270.09;;;18.04;100.00
35553;BME280;21656;46.054;13.614;2022-10-26T16:31:34;101278.13;;;18.06;100.00
35553;BME280;21656;46.054;13.614;2022-10-26T16:33:59;101281.75;;;17.96;100.00
35553;BME280;21656;46.054;13.614;2022-10-26T16:36:24;101287.50;;;17.93;100.00
35553;BME280;21656;46.054;13.614;2022-10-26T16:38:50;101287.19;;;17.96;100.00
35553;BME280;21656;46.054;13.614;2022-10-26T16:41:15;101288.50;;;17.92;100.00
35553;BME280;21656;46.054;13.614;2022-10-26T16:43:44;101293.50;;;17.97;100.00
35553;BME280;21656;46.054;13.614;2022-10-26T16:46:15;101292.78;;;17.95;100.00
35553;BME280;21656;46.054;13.614;2022-10-26T16:48:42;101288.03;;;17.97;100.00
35553;BME280;21656;46.054;13.614;2022-10-26T16:53:34;101293.84;;;17.84;100.00
35553;BME280;21656;46.054;13.614;2022-10-26T16:56:02;101289.56;;;17.72;100.00
35553;BME280;21656;46.054;13.614;2022-10-26T16:58:28;101295.03;;;17.62;100.00
35553;BME280;21656;46.054;13.614;2022-10-26T17:00:53;101292.59;;;17.59;100.00
35553;BME280;21656;46.054;13.614;2022-10-26T17:03:19;101289.66;;;17.52;100.00
35553;BME280;21656;46.054;13.614;2022-10-26T17:05:44;101299.28;;;17.37;100.00
35553;BME280;21656;46.054;13.614;2022-10-26T17:08:09;101303.84;;;17.37;100.00
35553;BME280;21656;46.054;13.614;2022-10-26T17:10:35;101307.59;;;17.36;100.00
35553;BME280;21656;46.054;13.614;2022-10-26T17:13:00;101309.88;;;17.40;100.00
35553;BME280;21656;46.054;13.614;2022-10-26T17:15:26;101311.44;;;17.43;100.00
35553;BME280;21656;46.054;13.614;2022-10-26T17:17:52;101315.31;;;17.50;100.00
35553;BME280;21656;46.054;13.614;2022-10-26T17:20:17;101317.44;;;17.46;100.00
35553;BME280;21656;46.054;13.614;2022-10-26T17:22:43;101324.91;;;17.44;100.00
35553;BME280;21656;46.054;13.614;2022-10-26T17:25:08;101328.50;;;17.45;100.00
35553;BME280;21656;46.054;13.614;2022-10-26T17:27:34;101325.63;;;17.46;100.00
35553;BME280;21656;46.054;13.614;2022-10-26T17:29:59;101328.78;;;17.42;100.00
35553;BME280;21656;46.054;13.614;2022-10-26T17:32:24;101336.38;;;17.28;100.00
35553;BME280;21656;46.054;13.614;2022-10-26T17:34:50;101342.25;;;17.14;100.00
35553;BME280;21656;46.054;13.614;2022-10-26T17:37:15;101348.00;;;17.11;100.00
35553;BME280;21656;46.054;13.614;2022-10-26T17:39:40;101352.75;;;16.99;100.00
35553;BME280;21656;46.054;13.614;2022-10-26T17:42:06;101353.91;;;16.97;100.00
35553;BME280;21656;46.054;13.614;2022-10-26T17:44:31;101359.88;;;16.81;100.00
35553;BME280;21656;46.054;13.614;2022-10-26T17:46:59;101362.47;;;16.82;100.00
35553;BME280;21656;46.054;13.614;2022-10-26T17:49:24;101361.31;;;16.85;100.00
35553;BME280;21656;46.054;13.614;2022-10-26T17:51:50;101368.22;;;16.89;100.00
35553;BME280;21656;46.054;13.614;2022-10-26T17:54:15;101366.78;;;16.95;100.00
35553;BME280;21656;46.054;13.614;2022-10-26T17:56:41;101369.75;;;17.01;100.00
35553;BME280;21656;46.054;13.614;2022-10-26T17:59:10;101375.94;;;17.03;100.00
35553;BME280;21656;46.054;13.614;2022-10-26T18:01:36;101383.38;;;17.11;100.00
35553;BME280;21656;46.054;13.614;2022-10-26T18:04:01;101380.81;;;17.09;100.00
35553;BME280;21656;46.054;13.614;2022-10-26T18:06:27;101391.72;;;17.09;100.00
35553;BME280;21656;46.054;13.614;2022-10-26T18:08:55;101379.81;;;17.10;100.00
35553;BME280;21656;46.054;13.614;2022-10-26T18:11:21;101394.97;;;17.03;100.00
35553;BME280;21656;46.054;13.614;2022-10-26T18:13:47;101390.97;;;16.98;100.00
35553;BME280;21656;46.054;13.614;2022-10-26T18:16:16;101387.81;;;17.02;100.00
35553;BME280;21656;46.054;13.614;2022-10-26T18:18:43;101394.25;;;17.01;100.00
35553;BME280;21656;46.054;13.614;2022-10-26T18:21:15;101391.13;;;16.86;100.00
35553;BME280;21656;46.054;13.614;2022-10-26T18:23:41;101392.09;;;16.85;100.00
35553;BME280;21656;46.054;13.614;2022-10-26T18:26:13;101396.78;;;16.74;100.00
35553;BME280;21656;46.054;13.614;2022-10-26T18:28:39;101405.63;;;16.66;100.00
35553;BME280;21656;46.054;13.614;2022-10-26T18:31:06;101398.91;;;16.70;100.00
35553;BME280;21656;46.054;13.614;2022-10-26T18:33:32;101407.50;;;16.75;100.00
35553;BME280;21656;46.054;13.614;2022-10-26T18:36:06;101411.72;;;16.79;100.00
35553;BME280;21656;46.054;13.614;2022-10-26T18:38:32;101415.41;;;16.78;100.00
35553;BME280;21656;46.054;13.614;2022-10-26T18:40:58;101414.09;;;16.73;100.00
35553;BME280;21656;46.054;13.614;2022-10-26T18:43:25;101420.09;;;16.66;100.00
35553;BME280;21656;46.054;13.614;2022-10-26T18:45:50;101417.19;;;16.58;100.00
35553;BME280;21656;46.054;13.614;2022-10-26T18:48:17;101420.34;;;16.54;100.00
35553;BME280;21656;46.054;13.614;2022-10-26T18:50:43;101428.91;;;16.49;100.00
35553;BME280;21656;46.054;13.614;2022-10-26T18:53:08;101429.75;;;16.50;100.00
35553;BME280;21656;46.054;13.614;2022-10-26T18:55:39;101417.88;;;16.51;100.00
35553;BME280;21656;46.054;13.614;2022-10-26T18:58:06;101428.53;;;16.33;100.00
35553;BME280;21656;46.054;13.614;2022-10-26T19:00:36;101438.13;;;16.27;100.00
35553;BME280;21656;46.054;13.614;2022-10-26T19:03:01;101442.81;;;16.25;100.00
35553;BME280;21656;46.054;13.614;2022-10-26T19:05:28;101438.91;;;16.18;100.00
35553;BME280;21656;46.054;13.614;2022-10-26T19:07:54;101440.03;;;16.06;100.00
35553;BME280;21656;46.054;13.614;2022-10-26T19:10:19;101444.31;;;16.08;100.00
35553;BME280;21656;46.054;13.614;2022-10-26T19:12:44;101443.88;;;16.03;100.00
35553;BME280;21656;46.054;13.614;2022-10-26T19:15:10;101445.69;;;16.02;100.00
35553;BME280;21656;46.054;13.614;2022-10-26T19:17:35;101451.47;;;16.09;100.00
35553;BME280;21656;46.054;13.614;2022-10-26T19:20:00;101448.88;;;16.08;100.00
35553;BME280;21656;46.054;13.614;2022-10-26T19:22:26;101453.38;;;15.97;100.00
35553;BME280;21656;46.054;13.614;2022-10-26T19:24:51;101455.88;;;16.00;100.00
35553;BME280;21656;46.054;13.614;2022-10-26T19:27:16;101455.59;;;16.03;100.00
35553;BME280;21656;46.054;13.614;2022-10-26T19:29:42;101460.75;;;16.07;100.00
35553;BME280;21656;46.054;13.614;2022-10-26T19:32:07;101463.34;;;16.08;100.00
35553;BME280;21656;46.054;13.614;2022-10-26T19:34:33;101461.31;;;16.00;100.00
35553;BME280;21656;46.054;13.614;2022-10-26T19:36:58;101456.09;;;15.97;100.00
35553;BME280;21656;46.054;13.614;2022-10-26T19:39:23;101473.03;;;16.01;100.00
35553;BME280;21656;46.054;13.614;2022-10-26T19:41:49;101467.78;;;15.88;100.00
35553;BME280;21656;46.054;13.614;2022-10-26T19:44:14;101473.22;;;15.88;100.00
35553;BME280;21656;46.054;13.614;2022-10-26T19:46:39;101473.81;;;15.71;100.00
35553;BME280;21656;46.054;13.614;2022-10-26T19:49:05;101473.31;;;15.66;100.00
